createdAt,value
2023-05-07T00:00:59.297Z,63.7
2023-05-07T00:03:47.151Z,55.7
2023-05-07T00:06:35.104Z,55.6
2023-05-07T00:09:22.869Z,58.4
2023-05-07T00:12:10.869Z,61.5
2023-05-07T00:14:58.309Z,63.1
2023-05-07T00:17:46.654Z,54.8
2023-05-07T00:20:36.306Z,55.7
2023-05-07T00:23:23.790Z,59.7
2023-05-07T00:26:11.082Z,62.6
2023-05-07T00:28:58.466Z,60.9
2023-05-07T00:31:45.879Z,54.4
2023-05-07T00:34:35.568Z,55.6
2023-05-07T00:37:23.211Z,60
2023-05-07T00:40:10.948Z,63.7
2023-05-07T00:42:58.579Z,60.6
2023-05-07T00:45:45.938Z,55.7
2023-05-07T00:48:34.556Z,56
2023-05-07T00:51:22.021Z,59.4
2023-05-07T00:54:12.414Z,62.1
2023-05-07T00:56:59.969Z,64.6
2023-05-07T00:59:49.229Z,56.7
2023-05-07T01:02:37.716Z,54.1
2023-05-07T01:05:25.852Z,57.5
2023-05-07T01:08:16.058Z,61.2
2023-05-07T01:11:04.988Z,64.3
2023-05-07T01:13:53.503Z,56.6
2023-05-07T01:16:41.641Z,53.9
2023-05-07T01:19:30.106Z,56.6
2023-05-07T01:22:17.570Z,61.3
2023-05-07T01:25:16.054Z,64
2023-05-07T01:28:04.487Z,58.4
2023-05-07T01:30:51.897Z,53.7
2023-05-07T01:33:47.216Z,56.4
2023-05-07T01:36:37.290Z,60.6
2023-05-07T01:39:26.288Z,64
2023-05-07T01:42:15.342Z,54.2
2023-05-07T01:45:02.666Z,53.3
2023-05-07T01:47:51.249Z,57.7
2023-05-07T01:50:40.262Z,60.4
2023-05-07T01:53:28.765Z,64.7
2023-05-07T01:56:22.217Z,57.9
2023-05-07T01:59:11.006Z,54
2023-05-07T02:01:59.216Z,56.7
2023-05-07T02:04:46.697Z,60.5
2023-05-07T02:07:35.053Z,63.5
2023-05-07T02:10:22.439Z,54.4
2023-05-07T02:13:10.069Z,54.7
2023-05-07T02:15:57.386Z,58
2023-05-07T02:18:44.925Z,62.7
2023-05-07T02:21:32.272Z,60.4
2023-05-07T02:24:19.568Z,53.6
2023-05-07T02:27:07.336Z,55.5
2023-05-07T02:29:54.856Z,59.4
2023-05-07T02:32:42.217Z,64.3
2023-05-07T02:35:30.143Z,57
2023-05-07T02:38:17.485Z,54.3
2023-05-07T02:41:04.956Z,57.4
2023-05-07T02:43:52.270Z,60.7
2023-05-07T02:46:39.565Z,63.7
2023-05-07T02:49:26.850Z,55.1
2023-05-07T02:52:14.305Z,55.5
2023-05-07T02:55:01.530Z,58.7
2023-05-07T02:57:49.393Z,63.6
2023-05-07T03:00:36.661Z,59
2023-05-07T03:03:24.056Z,54.9
2023-05-07T03:06:11.425Z,57.8
2023-05-07T03:08:58.803Z,62.3
2023-05-07T03:11:46.011Z,61.3
2023-05-07T03:14:35.313Z,52.9
2023-05-07T03:17:22.673Z,54.5
2023-05-07T03:20:11.093Z,58.3
2023-05-07T03:22:59.055Z,61.9
2023-05-07T03:25:46.482Z,62.6
2023-05-07T03:28:35.047Z,53.3
2023-05-07T03:31:22.941Z,55.3
2023-05-07T03:34:10.688Z,59.7
2023-05-07T03:36:58.125Z,62.8
2023-05-07T03:39:46.212Z,59.6
2023-05-07T03:42:34.300Z,55.1
2023-05-07T03:45:21.790Z,58.5
2023-05-07T03:48:09.216Z,61.3
2023-05-07T03:50:56.554Z,64.1
2023-05-07T03:53:44.421Z,61.1
2023-05-07T03:56:31.790Z,53.7
2023-05-07T03:59:19.036Z,54.8
2023-05-07T04:02:06.413Z,57.9
2023-05-07T04:04:53.885Z,62.9
2023-05-07T04:07:41.134Z,60.2
2023-05-07T04:10:28.609Z,53.6
2023-05-07T04:13:15.930Z,56
2023-05-07T04:16:03.568Z,60.1
2023-05-07T04:18:51.944Z,64.3
2023-05-07T04:21:39.329Z,57.7
2023-05-07T04:24:26.611Z,54.4
2023-05-07T04:27:17.053Z,56.5
2023-05-07T04:30:04.511Z,60.1
2023-05-07T04:32:53.728Z,62.7
2023-05-07T04:35:41.887Z,61.5
2023-05-07T04:38:29.235Z,54.2
2023-05-07T04:41:17.280Z,55.7
2023-05-07T04:44:04.800Z,58.8
2023-05-07T04:46:52.129Z,61.8
2023-05-07T04:49:39.502Z,62.5
2023-05-07T04:52:27.398Z,54.4
2023-05-07T04:55:14.923Z,54.7
2023-05-07T04:58:02.505Z,58.9
2023-05-07T05:00:50.527Z,62.1
2023-05-07T05:03:38.370Z,62.5
2023-05-07T05:06:26.476Z,54.3
2023-05-07T05:09:13.779Z,55.2
2023-05-07T05:12:01.584Z,59.2
2023-05-07T05:14:49.392Z,60.9
2023-05-07T05:17:37.535Z,62.9
2023-05-07T05:20:25.041Z,55.2
2023-05-07T05:23:12.421Z,53.9
2023-05-07T05:25:59.790Z,57.3
2023-05-07T05:28:47.558Z,60.3
2023-05-07T05:31:35.450Z,63
2023-05-07T05:34:23.168Z,60.6
2023-05-07T05:37:10.547Z,52.5
2023-05-07T05:39:58.218Z,53.1
2023-05-07T05:42:45.421Z,56.3
2023-05-07T05:45:32.838Z,60.5
2023-05-07T05:48:20.239Z,63.1
2023-05-07T05:51:08.337Z,58.7
2023-05-07T05:53:55.564Z,56
2023-05-07T05:56:43.082Z,57.9
2023-05-07T05:59:30.546Z,59.7
2023-05-07T06:02:18.142Z,62.9
2023-05-07T06:05:05.867Z,55
2023-05-07T06:07:54.051Z,54.5
2023-05-07T06:10:41.897Z,57.2
2023-05-07T06:13:29.520Z,60
2023-05-07T06:16:17.022Z,62.5
2023-05-07T06:19:04.934Z,61.1
2023-05-07T06:21:52.284Z,53.5
2023-05-07T06:24:41.752Z,53.8
2023-05-07T06:27:29.129Z,57.7
2023-05-07T06:30:16.556Z,60.1
2023-05-07T06:33:03.892Z,63.2
2023-05-07T06:35:51.141Z,58.4
2023-05-07T06:38:38.657Z,53
2023-05-07T06:41:26.074Z,55.9
2023-05-07T06:44:13.359Z,57.5
2023-05-07T06:47:00.742Z,61
2023-05-07T06:49:48.510Z,57
2023-05-07T06:52:35.907Z,54.8
2023-05-07T06:55:23.347Z,55.8
2023-05-07T06:58:11.288Z,59.4
2023-05-07T07:00:58.751Z,61.1
2023-05-07T07:03:46.222Z,55.7
2023-05-07T07:06:34.929Z,52.2
2023-05-07T07:09:23.995Z,54.2
2023-05-07T07:12:12.126Z,54.8
2023-05-07T07:15:00.282Z,58
2023-05-07T07:17:48.519Z,63.3
2023-05-07T07:20:36.206Z,56.8
2023-05-07T07:23:23.513Z,53.9
2023-05-07T07:26:11.322Z,54.1
2023-05-07T07:28:58.677Z,56.1
2023-05-07T07:31:46.194Z,59
2023-05-07T07:34:35.200Z,62
2023-05-07T07:37:22.783Z,54.7
2023-05-07T07:40:11.164Z,52.3
2023-05-07T07:42:59.271Z,53.9
2023-05-07T07:45:46.990Z,57.2
2023-05-07T07:48:35.345Z,59.6
2023-05-07T07:51:22.749Z,59.1
2023-05-07T07:54:10.281Z,61.1
2023-05-07T07:56:57.635Z,60.6
2023-05-07T07:59:45.471Z,53.2
2023-05-07T08:02:33.191Z,51
2023-05-07T08:05:20.949Z,52.2
2023-05-07T08:08:08.487Z,55.4
2023-05-07T08:10:56.129Z,58.5
2023-05-07T08:13:43.503Z,60
2023-05-07T08:16:32.911Z,60.5
2023-05-07T08:19:20.272Z,60.1
2023-05-07T08:22:08.038Z,60.4
2023-05-07T08:24:56.154Z,56.6
2023-05-07T08:27:43.596Z,55.5
2023-05-07T08:30:30.980Z,56.9
2023-05-07T08:33:18.366Z,59.8
2023-05-07T08:36:05.823Z,58.2
2023-05-07T08:38:53.541Z,60.7
2023-05-07T08:41:41.024Z,60
2023-05-07T08:44:31.551Z,58.5
2023-05-07T08:47:22.254Z,54
2023-05-07T08:50:15.567Z,57.1
2023-05-07T08:53:03.490Z,58.8
2023-05-07T08:55:51.195Z,57.8
2023-05-07T08:58:39.470Z,60.6
2023-05-07T09:01:27.151Z,61.4
2023-05-07T09:04:14.834Z,61.7
2023-05-07T09:07:02.382Z,55.7
2023-05-07T09:09:51.045Z,56.8
2023-05-07T09:12:39.251Z,58.7
2023-05-07T09:15:26.731Z,59.7
2023-05-07T09:18:16.649Z,59.7
2023-05-07T09:21:04.362Z,60.4
2023-05-07T09:23:55.646Z,60
2023-05-07T09:26:43.068Z,57.6
2023-05-07T09:29:30.710Z,58.3
2023-05-07T09:32:21.053Z,58.3
2023-05-07T09:35:08.670Z,59.1
2023-05-07T09:38:03.886Z,59.9
2023-05-07T09:40:51.992Z,60.9
2023-05-07T09:43:48.793Z,61.2
2023-05-07T09:46:40.869Z,60.8
2023-05-07T09:49:29.938Z,57.9
2023-05-07T09:52:21.415Z,60.4
2023-05-07T09:55:10.760Z,58.3
2023-05-07T09:57:58.947Z,56.9
2023-05-07T10:00:48.527Z,58.8
2023-05-07T10:03:37.406Z,56.7
2023-05-07T10:06:26.942Z,59.3
2023-05-07T10:09:16.107Z,56.8
2023-05-07T10:12:04.229Z,58
2023-05-07T10:14:52.346Z,56
2023-05-07T10:17:42.229Z,56.7
2023-05-07T10:20:30.585Z,58.5
2023-05-07T10:23:19.396Z,59.2
2023-05-07T10:26:10.575Z,57.3
2023-05-07T10:28:59.435Z,58.9
2023-05-07T10:31:53.587Z,58.3
2023-05-07T10:34:49.569Z,55.5
2023-05-07T10:37:40.989Z,56
2023-05-07T10:40:28.944Z,58.1
2023-05-07T10:43:17.374Z,56.3
2023-05-07T10:46:04.815Z,59.1
2023-05-07T10:49:02.266Z,59.3
2023-05-07T10:51:53.774Z,56.8
2023-05-07T10:55:13.293Z,57.6
2023-05-07T10:58:17.083Z,57.1
2023-05-07T11:01:13.201Z,57.6
2023-05-07T11:04:02.482Z,58.1
2023-05-07T11:07:10.295Z,57.5
2023-05-07T11:10:12.191Z,56.6
2023-05-07T11:13:00.337Z,58.9
2023-05-07T11:15:48.185Z,58.4
2023-05-07T11:18:36.994Z,58.7
2023-05-07T11:21:34.163Z,57.7
2023-05-07T11:24:22.847Z,56.7
2023-05-07T11:27:10.852Z,56.8
2023-05-07T11:29:58.749Z,57
2023-05-07T11:32:46.812Z,55.6
2023-05-07T11:35:36.991Z,52.7
2023-05-07T11:38:25.867Z,50.4
2023-05-07T11:41:14.571Z,50
2023-05-07T11:44:04.150Z,51.4
2023-05-07T11:46:51.616Z,51.2
2023-05-07T11:49:39.320Z,49.9
2023-05-07T11:52:27.138Z,49.8
2023-05-07T11:55:14.801Z,48.1
2023-05-07T11:58:05.173Z,51.2
2023-05-07T12:00:52.848Z,47.3
2023-05-07T12:03:41.201Z,48.7
2023-05-07T12:06:31.317Z,48.3
2023-05-07T12:09:23.726Z,47.8
2023-05-07T12:12:11.636Z,48.3
2023-05-07T12:15:01.130Z,45.7
2023-05-07T12:17:49.011Z,47.2
2023-05-07T12:20:38.086Z,48.5
2023-05-07T12:23:25.910Z,49.8
2023-05-07T12:26:14.047Z,49.6
2023-05-07T12:29:02.081Z,50
2023-05-07T12:31:49.652Z,47.3
2023-05-07T12:34:37.083Z,42.4
2023-05-07T12:37:25.610Z,45.9
2023-05-07T12:40:13.191Z,47.3
2023-05-07T12:43:01.150Z,47
2023-05-07T12:45:48.858Z,46.3
2023-05-07T12:48:37.656Z,47.9
2023-05-07T12:51:31.403Z,47.8
2023-05-07T12:54:21.351Z,47.9
2023-05-07T12:57:16.652Z,47.1
2023-05-07T13:00:06.455Z,49
2023-05-07T13:02:55.106Z,48.3
2023-05-07T13:05:44.230Z,48.1
2023-05-07T13:08:31.669Z,48
2023-05-07T13:11:21.979Z,48.6
2023-05-07T13:14:09.429Z,48.3
2023-05-07T13:16:58.309Z,49.2
2023-05-07T13:19:45.752Z,48.4
2023-05-07T13:22:33.577Z,48.7
2023-05-07T13:25:21.019Z,49.1
2023-05-07T13:28:11.169Z,49.1
2023-05-07T13:30:59.697Z,47.6
2023-05-07T13:33:47.405Z,47.7
2023-05-07T13:36:35.852Z,47.5
2023-05-07T13:39:25.648Z,47.4
2023-05-07T13:42:13.436Z,46.6
2023-05-07T13:45:00.967Z,45.6
2023-05-07T13:47:49.699Z,40.5
2023-05-07T13:50:37.366Z,40.9
2023-05-07T13:53:24.905Z,36.8
2023-05-07T13:56:12.754Z,35.8
2023-05-07T13:59:01.140Z,34.3
2023-05-07T14:01:49.081Z,34.8
2023-05-07T14:04:36.575Z,35.9
2023-05-07T14:07:24.398Z,35.2
2023-05-07T14:10:11.889Z,36.1
2023-05-07T14:12:59.574Z,37.5
2023-05-07T14:15:47.324Z,37.2
2023-05-07T14:18:35.718Z,35.4
2023-05-07T14:21:24.236Z,34.2
2023-05-07T14:24:11.644Z,32.7
2023-05-07T14:26:59.062Z,32.5
2023-05-07T14:29:46.457Z,29
2023-05-07T14:32:36.688Z,29.7
2023-05-07T14:35:24.116Z,28.9
2023-05-07T14:38:11.790Z,29.3
2023-05-07T14:40:59.262Z,31.7
2023-05-07T14:43:46.851Z,32
2023-05-07T14:46:35.706Z,31.9
2023-05-07T14:49:24.137Z,33.1
2023-05-07T14:52:11.621Z,33.7
2023-05-07T14:54:59.022Z,32.4
2023-05-07T14:57:56.660Z,33.6
2023-05-07T15:00:44.070Z,29.6
2023-05-07T15:03:41.686Z,29.3
2023-05-07T15:06:29.168Z,31.5
2023-05-07T15:09:17.008Z,32.3
2023-05-07T15:12:14.349Z,34
2023-05-07T15:15:01.871Z,34.6
2023-05-07T15:17:55.261Z,34.3
2023-05-07T15:20:43.085Z,35.5
2023-05-07T15:23:30.651Z,36.3
2023-05-07T15:26:23.436Z,38.1
2023-05-07T15:29:11.504Z,36.7
2023-05-07T15:31:59.236Z,36.1
2023-05-07T15:34:46.797Z,34.2
2023-05-07T15:37:34.606Z,31.2
2023-05-07T15:40:22.048Z,29
2023-05-07T15:43:19.417Z,27.6
2023-05-07T15:46:07.363Z,28.5
2023-05-07T15:48:54.693Z,29.9
2023-05-07T15:51:42.571Z,30.9
2023-05-07T15:54:29.938Z,31.3
2023-05-07T15:57:17.380Z,33.5
2023-05-07T16:00:04.917Z,33.3
2023-05-07T16:02:54.933Z,31.7
2023-05-07T16:05:42.535Z,30.9
2023-05-07T16:08:30.453Z,31.1
2023-05-07T16:11:18.531Z,31.4
2023-05-07T16:14:05.988Z,32.3
2023-05-07T16:16:54.674Z,33
2023-05-07T16:19:43.763Z,33.8
2023-05-07T16:22:31.526Z,35.1
2023-05-07T16:25:18.940Z,35.6
2023-05-07T16:28:06.734Z,36
2023-05-07T16:30:54.267Z,37.2
2023-05-07T16:33:41.749Z,35.6
2023-05-07T16:36:29.677Z,34.3
2023-05-07T16:39:17.147Z,33.2
2023-05-07T16:42:04.689Z,30.2
2023-05-07T16:44:52.100Z,29.6
2023-05-07T16:47:39.583Z,29.4
2023-05-07T16:50:27.030Z,29.4
2023-05-07T16:53:14.646Z,30.8
2023-05-07T16:56:02.075Z,31.7
2023-05-07T16:58:51.024Z,33.6
2023-05-07T17:01:38.609Z,34.5
2023-05-07T17:04:27.383Z,36.1
2023-05-07T17:07:16.014Z,35.7
2023-05-07T17:10:03.730Z,35.6
2023-05-07T17:12:52.805Z,35.4
2023-05-07T17:15:40.249Z,35
2023-05-07T17:18:29.660Z,34.8
2023-05-07T17:21:17.184Z,34.9
2023-05-07T17:24:04.736Z,35.7
2023-05-07T17:26:57.783Z,35.7
2023-05-07T17:29:45.170Z,36.7
2023-05-07T17:32:32.606Z,37.7
2023-05-07T17:35:20.139Z,39.6
2023-05-07T17:38:07.588Z,39.3
2023-05-07T17:40:55.759Z,39.9
2023-05-07T17:43:43.779Z,40
2023-05-07T17:46:31.808Z,40.9
2023-05-07T17:49:19.438Z,41.3
2023-05-07T17:52:06.842Z,43.3
2023-05-07T17:54:54.973Z,43.4
2023-05-07T17:57:42.511Z,43.2
2023-05-07T18:00:29.978Z,44.3
2023-05-07T18:03:17.498Z,45
2023-05-07T18:06:04.947Z,45.8
2023-05-07T18:08:52.633Z,47.1
2023-05-07T18:11:40.401Z,47.6
2023-05-07T18:14:27.827Z,48.7
2023-05-07T18:17:15.354Z,49.6
2023-05-07T18:20:03.130Z,50.7
2023-05-07T18:22:55.915Z,51
2023-05-07T18:25:43.433Z,52
2023-05-07T18:28:32.122Z,51.6
2023-05-07T18:31:19.558Z,52.5
2023-05-07T18:34:07.022Z,54.1
2023-05-07T18:36:54.913Z,53.7
2023-05-07T18:39:43.271Z,54
2023-05-07T18:42:30.897Z,54.2
2023-05-07T18:45:18.378Z,54.8
2023-05-07T18:48:06.117Z,55.8
2023-05-07T18:50:53.795Z,56
2023-05-07T18:53:41.849Z,56.9
2023-05-07T18:56:29.359Z,57.8
2023-05-07T18:59:17.116Z,57.2
2023-05-07T19:02:04.844Z,57.8
2023-05-07T19:04:52.395Z,57.3
2023-05-07T19:07:40.397Z,58
2023-05-07T19:10:27.760Z,59
2023-05-07T19:13:15.283Z,59.2
2023-05-07T19:16:02.660Z,58.5
2023-05-07T19:18:50.358Z,58.1
2023-05-07T19:21:37.809Z,59.6
2023-05-07T19:24:25.234Z,59.5
2023-05-07T19:27:12.585Z,61.1
2023-05-07T19:30:00.210Z,63.3
2023-05-07T19:32:48.823Z,57.5
2023-05-07T19:35:36.532Z,53
2023-05-07T19:38:23.969Z,53.9
2023-05-07T19:41:11.685Z,54.8
2023-05-07T19:43:59.088Z,55.7
2023-05-07T19:46:46.741Z,57.4
2023-05-07T19:49:35.804Z,58.7
2023-05-07T19:52:23.544Z,59.9
2023-05-07T19:55:11.852Z,60.4
2023-05-07T19:57:59.489Z,58.6
2023-05-07T20:00:46.917Z,59.3
2023-05-07T20:03:35.409Z,60.3
2023-05-07T20:06:22.984Z,61.1
2023-05-07T20:09:11.047Z,59.6
2023-05-07T20:11:58.786Z,61.5
2023-05-07T20:14:46.315Z,63.2
2023-05-07T20:17:34.402Z,57.3
2023-05-07T20:20:22.371Z,53
2023-05-07T20:23:10.760Z,54.7
2023-05-07T20:25:58.073Z,55.1
2023-05-07T20:28:45.646Z,57.4
2023-05-07T20:31:33.153Z,57.9
2023-05-07T20:34:20.883Z,58.9
2023-05-07T20:37:08.303Z,60.3
2023-05-07T20:39:58.907Z,60.4
2023-05-07T20:42:47.797Z,62.2
2023-05-07T20:45:36.316Z,60.6
2023-05-07T20:48:24.027Z,53
2023-05-07T20:51:15.517Z,53.8
2023-05-07T20:54:02.767Z,55.3
2023-05-07T20:56:53.120Z,57.1
2023-05-07T20:59:41.980Z,58.8
2023-05-07T21:02:29.406Z,60.4
2023-05-07T21:05:16.963Z,61.9
2023-05-07T21:08:04.579Z,61.8
2023-05-07T21:10:51.940Z,63.6
2023-05-07T21:13:39.944Z,59.2
2023-05-07T21:16:27.333Z,54.6
2023-05-07T21:19:14.667Z,54.6
2023-05-07T21:22:01.967Z,55.9
2023-05-07T21:24:49.568Z,57.7
2023-05-07T21:27:37.089Z,60.1
2023-05-07T21:30:24.536Z,61.2
2023-05-07T21:33:12.019Z,62.1
2023-05-07T21:35:59.524Z,63
2023-05-07T21:38:46.961Z,60.7
2023-05-07T21:41:35.355Z,52.8
2023-05-07T21:44:22.907Z,53.8
2023-05-07T21:47:11.053Z,56
2023-05-07T21:49:59.281Z,58
2023-05-07T21:52:47.440Z,59.5
2023-05-07T21:55:35.806Z,59.9
2023-05-07T21:58:23.129Z,62.1
2023-05-07T22:01:10.712Z,62.2
2023-05-07T22:03:58.387Z,53.2
2023-05-07T22:06:46.042Z,53.4
2023-05-07T22:09:33.541Z,56.1
2023-05-07T22:12:20.778Z,59
2023-05-07T22:15:08.302Z,59.9
2023-05-07T22:17:56.358Z,60.1
2023-05-07T22:20:43.806Z,61.6
2023-05-07T22:23:31.068Z,63.1
2023-05-07T22:26:18.559Z,59.6
2023-05-07T22:29:06.765Z,52.5
2023-05-07T22:31:54.200Z,53.4
2023-05-07T22:34:41.578Z,56.7
2023-05-07T22:37:28.872Z,58.6
2023-05-07T22:40:16.446Z,59.9
2023-05-07T22:43:03.929Z,61.4
2023-05-07T22:45:51.386Z,62
2023-05-07T22:48:44.544Z,60.8
2023-05-07T22:51:31.780Z,53.2
2023-05-07T22:54:19.301Z,54.1
2023-05-07T22:57:06.778Z,56
2023-05-07T22:59:54.124Z,57.6
2023-05-07T23:02:41.823Z,59.6
2023-05-07T23:05:29.222Z,60.5
2023-05-07T23:08:16.949Z,62
2023-05-07T23:11:04.486Z,63.8
2023-05-07T23:13:52.542Z,55
2023-05-07T23:16:39.817Z,53.4
2023-05-07T23:19:27.305Z,55
2023-05-07T23:22:14.701Z,57.1
2023-05-07T23:25:02.066Z,58.9
2023-05-07T23:27:50.164Z,61
2023-05-07T23:30:37.560Z,61.7
2023-05-07T23:33:25.515Z,64.1
2023-05-07T23:36:12.763Z,56.2
2023-05-07T23:39:00.195Z,54.2
2023-05-07T23:41:47.700Z,55.2
2023-05-07T23:44:36.053Z,58.2
2023-05-07T23:47:23.312Z,59.4
2023-05-07T23:50:10.901Z,61.9
2023-05-07T23:52:58.346Z,63.7
2023-05-07T23:55:45.828Z,54
2023-05-07T23:58:33.237Z,51.3
